createdAt,value
2022-12-17T00:00:00.713Z,893.0
2022-12-17T00:01:00.816Z,893.0
2022-12-17T00:02:00.692Z,893.0
2022-12-17T00:03:00.787Z,893.0
2022-12-17T00:04:00.798Z,893.1
2022-12-17T00:05:00.870Z,893.1
2022-12-17T00:06:00.736Z,893.1
2022-12-17T00:07:00.754Z,893.1
2022-12-17T00:08:00.688Z,893.1
2022-12-17T00:09:00.776Z,893.1
2022-12-17T00:10:00.784Z,893.1
2022-12-17T00:11:00.877Z,893.1
2022-12-17T00:12:00.902Z,893.1
2022-12-17T00:13:00.716Z,893.1
2022-12-17T00:14:00.770Z,893.1
2022-12-17T00:15:00.732Z,893.1
2022-12-17T00:16:00.812Z,893.1
2022-12-17T00:17:00.909Z,893.1
2022-12-17T00:18:00.686Z,893.1
2022-12-17T00:19:00.690Z,893.1
2022-12-17T00:20:00.739Z,893.2
2022-12-17T00:21:00.753Z,893.1
2022-12-17T00:22:00.688Z,893.1
2022-12-17T00:23:00.933Z,893.2
2022-12-17T00:24:00.719Z,893.2
2022-12-17T00:25:00.747Z,893.1
2022-12-17T00:26:00.759Z,893.1
2022-12-17T00:27:00.915Z,893.1
2022-12-17T00:28:00.764Z,893.1
2022-12-17T00:29:00.845Z,893.1
2022-12-17T00:30:00.684Z,893.1
2022-12-17T00:31:00.769Z,893.1
2022-12-17T00:32:00.734Z,893.1
2022-12-17T00:33:00.741Z,893.1
2022-12-17T00:34:00.742Z,893.1
2022-12-17T00:35:00.884Z,893.1
2022-12-17T00:36:00.724Z,893.1
2022-12-17T00:37:00.760Z,893.1
2022-12-17T00:38:00.744Z,893.2
2022-12-17T00:39:00.712Z,893.2
2022-12-17T00:40:00.718Z,893.2
2022-12-17T00:41:00.890Z,893.2
2022-12-17T00:42:00.877Z,893.2
2022-12-17T00:43:00.741Z,893.2
2022-12-17T00:44:00.715Z,893.2
2022-12-17T00:45:00.683Z,893.2
2022-12-17T00:46:00.716Z,893.2
2022-12-17T00:47:00.987Z,893.2
2022-12-17T00:48:00.768Z,893.2
2022-12-17T00:49:00.732Z,893.2
2022-12-17T00:50:00.788Z,893.2
2022-12-17T00:51:00.791Z,893.2
2022-12-17T00:52:00.688Z,893.2
2022-12-17T00:53:00.827Z,893.2
2022-12-17T00:54:00.704Z,893.2
2022-12-17T00:55:00.738Z,893.2
2022-12-17T00:56:00.686Z,893.2
2022-12-17T00:57:00.905Z,893.2
2022-12-17T00:58:00.744Z,893.2
2022-12-17T00:59:00.921Z,893.1
2022-12-17T01:00:00.761Z,893.1
2022-12-17T01:01:00.773Z,893.1
2022-12-17T01:02:00.882Z,893.1
2022-12-17T01:03:00.813Z,893.1
2022-12-17T01:04:00.710Z,893.2
2022-12-17T01:05:00.896Z,893.2
2022-12-17T01:06:00.712Z,893.2
2022-12-17T01:07:00.718Z,893.2
2022-12-17T01:08:00.720Z,893.2
2022-12-17T01:09:00.741Z,893.2
2022-12-17T01:10:00.717Z,893.2
2022-12-17T01:11:00.895Z,893.2
2022-12-17T01:12:00.911Z,893.2
2022-12-17T01:13:00.875Z,893.2
2022-12-17T01:14:00.716Z,893.2
2022-12-17T01:15:00.718Z,893.1
2022-12-17T01:16:00.778Z,893.2
2022-12-17T01:17:00.820Z,893.2
2022-12-17T01:18:00.716Z,893.2
2022-12-17T01:19:00.724Z,893.2
2022-12-17T01:20:00.712Z,893.2
2022-12-17T01:21:00.759Z,893.2
2022-12-17T01:22:00.692Z,893.2
2022-12-17T01:23:00.833Z,893.2
2022-12-17T01:24:00.714Z,893.2
2022-12-17T01:25:00.714Z,893.2
2022-12-17T01:26:00.749Z,893.2
2022-12-17T01:27:00.756Z,893.2
2022-12-17T01:28:00.864Z,893.2
2022-12-17T01:29:00.896Z,893.2
2022-12-17T01:30:00.746Z,893.2
2022-12-17T01:31:00.695Z,893.2
2022-12-17T01:32:00.760Z,893.2
2022-12-17T01:33:00.713Z,893.2
2022-12-17T01:34:00.762Z,893.2
2022-12-17T01:35:00.830Z,893.2
2022-12-17T01:36:00.823Z,893.2
2022-12-17T01:37:00.792Z,893.2
2022-12-17T01:38:00.754Z,893.2
2022-12-17T01:39:00.730Z,893.2
2022-12-17T01:40:00.726Z,893.2
2022-12-17T01:41:01.220Z,893.2
2022-12-17T01:42:00.726Z,893.2
2022-12-17T01:43:00.722Z,893.2
2022-12-17T01:44:00.883Z,893.2
2022-12-17T01:45:00.715Z,893.3
2022-12-17T01:46:00.826Z,893.2
2022-12-17T01:47:00.833Z,893.3
2022-12-17T01:48:00.752Z,893.2
2022-12-17T01:49:00.742Z,893.2
2022-12-17T01:50:00.712Z,893.2
2022-12-17T01:51:00.706Z,893.2
2022-12-17T01:52:00.747Z,893.2
2022-12-17T01:53:00.839Z,893.2
2022-12-17T01:54:00.776Z,893.3
2022-12-17T01:55:00.801Z,893.3
2022-12-17T01:56:00.754Z,893.3
2022-12-17T01:57:00.690Z,893.3
2022-12-17T01:58:00.777Z,893.3
2022-12-17T01:59:00.942Z,893.3
2022-12-17T02:00:00.791Z,893.3
2022-12-17T02:01:00.789Z,893.3
2022-12-17T02:02:00.935Z,893.3
2022-12-17T02:03:00.839Z,893.3
2022-12-17T02:04:00.777Z,893.3
2022-12-17T02:05:00.833Z,893.3
2022-12-17T02:06:00.714Z,893.3
2022-12-17T02:07:00.756Z,893.3
2022-12-17T02:08:00.684Z,893.4
2022-12-17T02:09:00.686Z,893.4
2022-12-17T02:10:00.740Z,893.4
2022-12-17T02:11:00.885Z,893.4
2022-12-17T02:12:00.751Z,893.4
2022-12-17T02:13:00.689Z,893.4
2022-12-17T02:14:00.966Z,893.4
2022-12-17T02:15:00.823Z,893.5
2022-12-17T02:16:00.948Z,893.5
2022-12-17T02:17:00.935Z,893.5
2022-12-17T02:18:00.747Z,893.5
2022-12-17T02:19:00.910Z,893.5
2022-12-17T02:20:00.768Z,893.5
2022-12-17T02:21:00.771Z,893.5
2022-12-17T02:22:00.742Z,893.5
2022-12-17T02:23:01.054Z,893.5
2022-12-17T02:24:00.742Z,893.5
2022-12-17T02:25:00.710Z,893.5
2022-12-17T02:26:00.750Z,893.5
2022-12-17T02:27:00.718Z,893.6
2022-12-17T02:28:00.775Z,893.5
2022-12-17T02:29:00.873Z,893.6
2022-12-17T02:30:00.765Z,893.6
2022-12-17T02:31:00.870Z,893.6
2022-12-17T02:32:00.785Z,893.6
2022-12-17T02:33:00.713Z,893.6
2022-12-17T02:34:00.770Z,893.6
2022-12-17T02:35:00.844Z,893.6
2022-12-17T02:36:00.739Z,893.7
2022-12-17T02:37:00.804Z,893.6
2022-12-17T02:38:00.742Z,893.7
2022-12-17T02:39:00.710Z,893.7
2022-12-17T02:40:00.782Z,893.7
2022-12-17T02:41:00.917Z,893.7
2022-12-17T02:42:00.819Z,893.7
2022-12-17T02:43:00.791Z,893.7
2022-12-17T02:44:00.735Z,893.7
2022-12-17T02:45:00.716Z,893.7
2022-12-17T02:46:00.981Z,893.7
2022-12-17T02:47:00.922Z,893.7
2022-12-17T02:48:00.692Z,893.7
2022-12-17T02:49:00.713Z,893.8
2022-12-17T02:50:00.711Z,893.7
2022-12-17T02:51:00.747Z,893.8
2022-12-17T02:52:00.712Z,893.8
2022-12-17T02:53:00.852Z,893.8
2022-12-17T02:54:00.738Z,893.8
2022-12-17T02:55:00.737Z,893.8
2022-12-17T02:56:00.705Z,893.8
2022-12-17T02:57:00.713Z,893.8
2022-12-17T02:58:00.713Z,893.8
2022-12-17T02:59:00.800Z,893.8
2022-12-17T03:00:00.781Z,893.8
2022-12-17T03:01:00.747Z,893.8
2022-12-17T03:02:01.132Z,893.7
2022-12-17T03:03:01.004Z,893.8
2022-12-17T03:04:00.766Z,893.8
2022-12-17T03:05:15.217Z,893.7
2022-12-17T03:06:00.740Z,893.8
2022-12-17T03:07:00.686Z,893.8
2022-12-17T03:08:00.720Z,893.8
2022-12-17T03:09:00.773Z,893.8
2022-12-17T03:10:00.793Z,893.8
2022-12-17T03:11:00.821Z,893.8
2022-12-17T03:12:00.710Z,893.8
2022-12-17T03:13:00.732Z,893.8
2022-12-17T03:14:00.712Z,893.8
2022-12-17T03:15:00.696Z,893.8
2022-12-17T03:16:00.727Z,893.8
2022-12-17T03:17:00.942Z,893.8
2022-12-17T03:18:00.884Z,893.8
2022-12-17T03:19:00.867Z,893.8
2022-12-17T03:20:00.724Z,893.8
2022-12-17T03:21:00.713Z,893.8
2022-12-17T03:22:00.691Z,893.8
2022-12-17T03:23:01.017Z,893.8
2022-12-17T03:24:00.720Z,893.8
2022-12-17T03:25:00.750Z,893.9
2022-12-17T03:26:00.757Z,893.9
2022-12-17T03:27:00.716Z,893.9
2022-12-17T03:28:00.690Z,893.9
2022-12-17T03:29:00.881Z,894.0
2022-12-17T03:30:00.689Z,894.0
2022-12-17T03:31:00.771Z,894.0
2022-12-17T03:32:00.739Z,894.0
2022-12-17T03:33:00.751Z,894.0
2022-12-17T03:34:00.854Z,894.0
2022-12-17T03:35:00.882Z,894.0
2022-12-17T03:36:00.694Z,894.0
2022-12-17T03:37:00.690Z,894.0
2022-12-17T03:38:00.719Z,894.0
2022-12-17T03:39:00.714Z,894.1
2022-12-17T03:40:00.696Z,894.0
2022-12-17T03:41:00.894Z,894.1
2022-12-17T03:42:00.716Z,894.1
2022-12-17T03:43:00.752Z,894.1
2022-12-17T03:44:00.686Z,894.1
2022-12-17T03:45:00.752Z,894.1
2022-12-17T03:46:00.742Z,894.1
2022-12-17T03:47:00.915Z,894.1
2022-12-17T03:48:00.764Z,894.1
2022-12-17T03:49:00.748Z,894.2
2022-12-17T03:50:00.918Z,894.1
2022-12-17T03:51:00.701Z,894.2
2022-12-17T03:52:00.721Z,894.2
2022-12-17T03:53:00.912Z,894.1
2022-12-17T03:54:00.806Z,894.2
2022-12-17T03:55:00.726Z,894.2
2022-12-17T03:56:00.740Z,894.2
2022-12-17T03:57:00.746Z,894.2
2022-12-17T03:58:00.807Z,894.2
2022-12-17T03:59:00.868Z,894.2
2022-12-17T04:00:00.757Z,894.2
2022-12-17T04:01:00.776Z,894.2
2022-12-17T04:02:00.947Z,894.2
2022-12-17T04:03:00.998Z,894.2
2022-12-17T04:04:00.815Z,894.1
2022-12-17T04:05:00.876Z,894.2
2022-12-17T04:06:00.689Z,894.2
2022-12-17T04:07:00.746Z,894.2
2022-12-17T04:08:00.717Z,894.2
2022-12-17T04:09:00.744Z,894.2
2022-12-17T04:10:00.733Z,894.2
2022-12-17T04:11:00.879Z,894.2
2022-12-17T04:12:00.725Z,894.2
2022-12-17T04:13:00.692Z,894.2
2022-12-17T04:14:00.746Z,894.2
2022-12-17T04:15:00.754Z,894.2
2022-12-17T04:16:00.808Z,894.2
2022-12-17T04:17:00.820Z,894.2
2022-12-17T04:18:00.733Z,894.2
2022-12-17T04:19:00.723Z,894.2
2022-12-17T04:20:00.835Z,894.2
2022-12-17T04:21:00.711Z,894.3
2022-12-17T04:22:00.690Z,894.2
2022-12-17T04:23:00.895Z,894.3
2022-12-17T04:24:00.719Z,894.3
2022-12-17T04:25:00.746Z,894.3
2022-12-17T04:26:00.738Z,894.3
2022-12-17T04:27:00.829Z,894.3
2022-12-17T04:28:00.740Z,894.3
2022-12-17T04:29:00.871Z,894.3
2022-12-17T04:30:00.732Z,894.3
2022-12-17T04:31:00.778Z,894.3
2022-12-17T04:32:00.746Z,894.3
2022-12-17T04:33:00.754Z,894.3
2022-12-17T04:34:00.695Z,894.4
2022-12-17T04:35:00.957Z,894.4
2022-12-17T04:36:00.689Z,894.4
2022-12-17T04:37:00.683Z,894.4
2022-12-17T04:38:00.715Z,894.4
2022-12-17T04:39:00.724Z,894.4
2022-12-17T04:40:00.719Z,894.4
2022-12-17T04:41:00.844Z,894.4
2022-12-17T04:42:00.753Z,894.5
2022-12-17T04:43:00.808Z,894.5
2022-12-17T04:44:03.222Z,894.5
2022-12-17T04:45:00.711Z,894.5
2022-12-17T04:46:00.769Z,894.5
2022-12-17T04:47:00.830Z,894.5
2022-12-17T04:48:00.723Z,894.5
2022-12-17T04:49:00.760Z,894.5
2022-12-17T04:50:00.883Z,894.6
2022-12-17T04:51:00.742Z,894.6
2022-12-17T04:52:00.686Z,894.6
2022-12-17T04:53:00.923Z,894.6
2022-12-17T04:54:00.693Z,894.6
2022-12-17T04:55:00.772Z,894.7
2022-12-17T04:56:00.757Z,894.7
2022-12-17T04:57:00.759Z,894.7
2022-12-17T04:58:00.735Z,894.7
2022-12-17T04:59:00.930Z,894.7
2022-12-17T05:00:00.741Z,894.8
2022-12-17T05:01:00.796Z,894.8
2022-12-17T05:02:00.961Z,894.8
2022-12-17T05:03:00.992Z,894.8
2022-12-17T05:04:00.797Z,894.8
2022-12-17T05:05:00.952Z,894.8
2022-12-17T05:06:00.696Z,894.8
2022-12-17T05:07:00.713Z,894.8
2022-12-17T05:08:00.721Z,894.8
2022-12-17T05:09:00.745Z,894.8
2022-12-17T05:10:00.715Z,894.9
2022-12-17T05:11:00.813Z,894.9
2022-12-17T05:12:00.696Z,894.9
2022-12-17T05:13:00.689Z,894.9
2022-12-17T05:14:00.692Z,894.9
2022-12-17T05:15:00.714Z,895.0
2022-12-17T05:16:00.790Z,895.0
2022-12-17T05:17:00.942Z,895.0
2022-12-17T05:18:00.696Z,895.0
2022-12-17T05:19:00.752Z,895.0
2022-12-17T05:20:00.780Z,895.0
2022-12-17T05:21:00.718Z,895.0
2022-12-17T05:22:00.738Z,895.0
2022-12-17T05:23:00.897Z,895.0
2022-12-17T05:24:00.750Z,895.1
2022-12-17T05:25:00.753Z,895.1
2022-12-17T05:26:00.823Z,895.1
2022-12-17T05:27:00.782Z,895.1
2022-12-17T05:28:00.703Z,895.1
2022-12-17T05:29:00.955Z,895.1
2022-12-17T05:30:00.747Z,895.1
2022-12-17T05:31:00.811Z,895.2
2022-12-17T05:32:00.742Z,895.2
2022-12-17T05:33:00.723Z,895.2
2022-12-17T05:34:00.752Z,895.2
2022-12-17T05:35:00.991Z,895.2
2022-12-17T05:36:00.857Z,895.2
2022-12-17T05:37:00.688Z,895.2
2022-12-17T05:38:00.750Z,895.2
2022-12-17T05:39:00.717Z,895.2
2022-12-17T05:40:00.720Z,895.2
2022-12-17T05:41:00.999Z,895.2
2022-12-17T05:42:00.689Z,895.2
2022-12-17T05:43:00.701Z,895.2
2022-12-17T05:44:00.720Z,895.2
2022-12-17T05:45:00.752Z,895.3
2022-12-17T05:46:00.887Z,895.2
2022-12-17T05:47:00.960Z,895.3
2022-12-17T05:48:00.717Z,895.3
2022-12-17T05:49:00.737Z,895.3
2022-12-17T05:50:00.766Z,895.3
2022-12-17T05:51:00.878Z,895.3
2022-12-17T05:52:00.715Z,895.3
2022-12-17T05:53:00.841Z,895.3
2022-12-17T05:54:00.722Z,895.3
2022-12-17T05:55:00.717Z,895.3
2022-12-17T05:56:00.743Z,895.3
2022-12-17T05:57:00.715Z,895.3
2022-12-17T05:58:00.692Z,895.3
2022-12-17T05:59:00.866Z,895.3
2022-12-17T06:00:00.745Z,895.3
2022-12-17T06:01:00.781Z,895.3
2022-12-17T06:02:00.752Z,895.3
2022-12-17T06:03:00.821Z,895.3
2022-12-17T06:04:00.862Z,895.3
2022-12-17T06:05:02.578Z,895.3
2022-12-17T06:06:00.815Z,895.3
2022-12-17T06:07:00.827Z,895.3
2022-12-17T06:08:00.812Z,895.3
2022-12-17T06:09:00.760Z,895.3
2022-12-17T06:10:00.774Z,895.3
2022-12-17T06:11:00.933Z,895.3
2022-12-17T06:12:02.840Z,895.4
2022-12-17T06:13:00.715Z,895.4
2022-12-17T06:14:00.718Z,895.4
2022-12-17T06:15:00.691Z,895.4
2022-12-17T06:16:00.743Z,895.4
2022-12-17T06:17:00.911Z,895.4
2022-12-17T06:18:00.694Z,895.4
2022-12-17T06:19:00.784Z,895.4
2022-12-17T06:20:00.753Z,895.4
2022-12-17T06:21:00.687Z,895.4
2022-12-17T06:22:02.854Z,895.4
2022-12-17T06:23:00.817Z,895.4
2022-12-17T06:24:00.690Z,895.4
2022-12-17T06:25:00.718Z,895.4
2022-12-17T06:26:00.751Z,895.4
2022-12-17T06:27:00.945Z,895.4
2022-12-17T06:28:00.758Z,895.4
2022-12-17T06:29:00.869Z,895.4
2022-12-17T06:30:00.722Z,895.5
2022-12-17T06:31:00.783Z,895.5
2022-12-17T06:32:00.884Z,895.5
2022-12-17T06:33:00.759Z,895.5
2022-12-17T06:34:00.799Z,895.5
2022-12-17T06:35:00.961Z,895.5
2022-12-17T06:36:00.703Z,895.4
2022-12-17T06:37:00.748Z,895.5
2022-12-17T06:38:00.976Z,895.5
2022-12-17T06:39:00.779Z,895.5
2022-12-17T06:40:00.788Z,895.5
2022-12-17T06:41:00.828Z,895.5
2022-12-17T06:42:04.665Z,895.5
2022-12-17T06:43:00.877Z,895.5
2022-12-17T06:44:00.768Z,895.5
2022-12-17T06:45:00.822Z,895.5
2022-12-17T06:46:00.717Z,895.6
2022-12-17T06:47:01.089Z,895.5
2022-12-17T06:48:00.720Z,895.6
2022-12-17T06:49:00.748Z,895.6
2022-12-17T06:50:01.686Z,895.6
2022-12-17T06:51:00.757Z,895.6
2022-12-17T06:52:00.841Z,895.6
2022-12-17T06:53:01.017Z,895.6
2022-12-17T06:54:00.716Z,895.7
2022-12-17T06:55:00.759Z,895.7
2022-12-17T06:56:00.690Z,895.7
2022-12-17T06:57:00.887Z,895.7
2022-12-17T06:58:00.721Z,895.7
2022-12-17T06:59:00.837Z,895.7
2022-12-17T07:00:00.752Z,895.7
2022-12-17T07:01:00.797Z,895.7
2022-12-17T07:02:00.827Z,895.7
2022-12-17T07:03:00.746Z,895.7
2022-12-17T07:04:00.743Z,895.7
2022-12-17T07:05:00.844Z,895.7
2022-12-17T07:06:00.727Z,895.7
2022-12-17T07:07:00.797Z,895.7
2022-12-17T07:08:00.866Z,895.7
2022-12-17T07:09:00.689Z,895.7
2022-12-17T07:10:00.751Z,895.7
2022-12-17T07:11:00.867Z,895.6
2022-12-17T07:12:01.057Z,895.6
2022-12-17T07:13:00.694Z,895.6
2022-12-17T07:14:00.725Z,895.6
2022-12-17T07:15:00.693Z,895.6
2022-12-17T07:16:00.778Z,895.6
2022-12-17T07:17:00.949Z,895.6
2022-12-17T07:18:00.698Z,895.6
2022-12-17T07:19:00.782Z,895.6
2022-12-17T07:20:00.793Z,895.6
2022-12-17T07:21:00.746Z,895.6
2022-12-17T07:22:00.918Z,895.6
2022-12-17T07:23:00.872Z,895.6
2022-12-17T07:24:00.792Z,895.6
2022-12-17T07:25:00.712Z,895.6
2022-12-17T07:26:00.719Z,895.6
2022-12-17T07:27:00.905Z,895.7
2022-12-17T07:28:00.686Z,895.6
2022-12-17T07:29:00.888Z,895.7
2022-12-17T07:30:00.711Z,895.7
2022-12-17T07:31:00.692Z,895.7
2022-12-17T07:32:01.032Z,895.7
2022-12-17T07:33:00.748Z,895.7
2022-12-17T07:34:00.743Z,895.7
2022-12-17T07:35:00.956Z,895.7
2022-12-17T07:36:00.715Z,895.7
2022-12-17T07:37:00.861Z,895.7
2022-12-17T07:38:00.748Z,895.7
2022-12-17T07:39:00.834Z,895.8
2022-12-17T07:40:00.789Z,895.7
2022-12-17T07:41:00.847Z,895.7
2022-12-17T07:42:00.836Z,895.7
2022-12-17T07:43:00.723Z,895.7
2022-12-17T07:44:00.822Z,895.7
2022-12-17T07:45:00.684Z,895.7
2022-12-17T07:46:00.829Z,895.7
2022-12-17T07:47:00.893Z,895.6
2022-12-17T07:48:00.704Z,895.6
2022-12-17T07:49:00.713Z,895.6
2022-12-17T07:50:00.686Z,895.6
2022-12-17T07:51:00.727Z,895.6
2022-12-17T07:52:00.874Z,895.6
2022-12-17T07:53:00.893Z,895.6
2022-12-17T07:54:00.871Z,895.5
2022-12-17T07:55:00.724Z,895.5
2022-12-17T07:56:00.795Z,895.5
2022-12-17T07:57:00.886Z,895.6
2022-12-17T07:58:00.830Z,895.6
2022-12-17T07:59:00.921Z,895.5
2022-12-17T08:00:00.689Z,895.5
2022-12-17T08:01:00.772Z,895.5
2022-12-17T08:02:00.861Z,895.5
2022-12-17T08:03:00.783Z,895.5
2022-12-17T08:04:00.720Z,895.5
2022-12-17T08:05:00.895Z,895.5
2022-12-17T08:06:00.700Z,895.5
2022-12-17T08:07:04.152Z,895.5
2022-12-17T08:08:00.755Z,895.5
2022-12-17T08:09:00.828Z,895.5
2022-12-17T08:10:00.690Z,895.4
2022-12-17T08:11:01.023Z,895.4
2022-12-17T08:12:00.927Z,895.4
2022-12-17T08:13:00.819Z,895.4
2022-12-17T08:14:00.740Z,895.4
2022-12-17T08:15:00.808Z,895.4
2022-12-17T08:16:00.758Z,895.4
2022-12-17T08:17:01.049Z,895.4
2022-12-17T08:18:00.708Z,895.3
2022-12-17T08:19:00.696Z,895.3
2022-12-17T08:20:00.698Z,895.3
2022-12-17T08:21:00.691Z,895.3
2022-12-17T08:22:00.807Z,895.3
2022-12-17T08:23:00.938Z,895.3
2022-12-17T08:24:00.867Z,895.3
2022-12-17T08:25:00.761Z,895.3
2022-12-17T08:26:00.746Z,895.2
2022-12-17T08:27:00.865Z,895.2
2022-12-17T08:28:01.118Z,895.1
2022-12-17T08:29:00.847Z,895.1
2022-12-17T08:30:00.740Z,895.1
2022-12-17T08:31:00.865Z,895.1
2022-12-17T08:32:00.960Z,895.1
2022-12-17T08:33:00.720Z,895.1
2022-12-17T08:34:06.205Z,895.1
2022-12-17T08:35:00.937Z,895.1
2022-12-17T08:36:00.754Z,895.1
2022-12-17T08:37:00.898Z,895.1
2022-12-17T08:38:00.695Z,895.0
2022-12-17T08:39:00.902Z,895.0
2022-12-17T08:40:00.764Z,895.0
2022-12-17T08:41:01.186Z,895.0
2022-12-17T08:42:04.290Z,895.0
2022-12-17T08:43:00.747Z,895.0
2022-12-17T08:44:00.753Z,895.0
2022-12-17T08:45:00.820Z,894.9
2022-12-17T08:46:00.792Z,895.0
2022-12-17T08:47:00.908Z,894.9
2022-12-17T08:48:04.155Z,894.9
2022-12-17T08:49:00.724Z,894.9
2022-12-17T08:50:00.763Z,894.9
2022-12-17T08:51:00.755Z,894.9
2022-12-17T08:52:00.724Z,894.8
2022-12-17T08:53:00.985Z,894.9
2022-12-17T08:54:00.909Z,894.8
2022-12-17T08:55:00.687Z,894.9
2022-12-17T08:56:00.721Z,894.9
2022-12-17T08:57:00.942Z,894.8
2022-12-17T08:58:00.768Z,894.8
2022-12-17T08:59:00.891Z,894.8
2022-12-17T09:00:00.690Z,894.8
2022-12-17T09:01:00.816Z,894.8
2022-12-17T09:02:01.025Z,894.8
2022-12-17T09:03:00.836Z,894.8
2022-12-17T09:04:01.179Z,894.7
2022-12-17T09:05:01.300Z,894.8
2022-12-17T09:06:00.722Z,894.7
2022-12-17T09:07:00.730Z,894.7
2022-12-17T09:08:00.725Z,894.7
2022-12-17T09:09:00.891Z,894.7
2022-12-17T09:10:00.717Z,894.7
2022-12-17T09:11:00.785Z,894.7
2022-12-17T09:12:00.745Z,894.7
2022-12-17T09:13:04.676Z,894.7
2022-12-17T09:14:00.738Z,894.7
2022-12-17T09:15:00.748Z,894.7
2022-12-17T09:16:00.763Z,894.6
2022-12-17T09:17:01.137Z,894.6
2022-12-17T09:18:00.704Z,894.6
2022-12-17T09:19:00.801Z,894.6
2022-12-17T09:20:00.790Z,894.6
2022-12-17T09:21:00.718Z,894.6
2022-12-17T09:22:00.807Z,894.6
2022-12-17T09:23:00.931Z,894.6
2022-12-17T09:24:00.912Z,894.6
2022-12-17T09:25:00.775Z,894.5
2022-12-17T09:26:00.847Z,894.5
2022-12-17T09:27:00.755Z,894.5
2022-12-17T09:28:00.771Z,894.5
2022-12-17T09:29:00.799Z,894.5
2022-12-17T09:30:00.747Z,894.5
2022-12-17T09:31:00.793Z,894.5
2022-12-17T09:32:00.731Z,894.4
2022-12-17T09:33:00.736Z,894.4
2022-12-17T09:34:00.717Z,894.4
2022-12-17T09:35:00.929Z,894.4
2022-12-17T09:36:00.706Z,894.3
2022-12-17T09:37:00.699Z,894.3
2022-12-17T09:38:00.789Z,894.3
2022-12-17T09:39:00.794Z,894.3
2022-12-17T09:40:01.044Z,894.3
2022-12-17T09:41:01.066Z,894.3
2022-12-17T09:42:00.724Z,894.3
2022-12-17T09:43:00.742Z,894.2
2022-12-17T09:44:00.753Z,894.3
2022-12-17T09:45:00.752Z,894.3
2022-12-17T09:46:00.769Z,894.2
2022-12-17T09:47:00.905Z,894.3
2022-12-17T09:48:00.759Z,894.2
2022-12-17T09:49:00.787Z,894.2
2022-12-17T09:50:00.799Z,894.2
2022-12-17T09:51:00.729Z,894.2
2022-12-17T09:52:00.735Z,894.2
2022-12-17T09:53:00.972Z,894.2
2022-12-17T09:54:00.731Z,894.2
2022-12-17T09:55:01.598Z,894.2
2022-12-17T09:56:00.908Z,894.2
2022-12-17T09:57:00.698Z,894.2
2022-12-17T09:58:00.692Z,894.2
2022-12-17T09:59:00.927Z,894.2
2022-12-17T10:00:00.867Z,894.2
2022-12-17T10:01:01.218Z,894.2
2022-12-17T10:02:00.869Z,894.2
2022-12-17T10:03:00.939Z,894.2
2022-12-17T10:04:00.749Z,894.2
2022-12-17T10:05:00.898Z,894.2
2022-12-17T10:06:00.716Z,894.2
2022-12-17T10:07:00.735Z,894.2
2022-12-17T10:08:00.762Z,894.2
2022-12-17T10:09:00.799Z,894.2
2022-12-17T10:10:00.722Z,894.2
2022-12-17T10:11:01.023Z,894.2
2022-12-17T10:12:00.720Z,894.2
2022-12-17T10:13:00.692Z,894.2
2022-12-17T10:14:00.744Z,894.2
2022-12-17T10:15:00.698Z,894.2
2022-12-17T10:16:00.782Z,894.2
2022-12-17T10:17:01.019Z,894.2
2022-12-17T10:18:00.716Z,894.2
2022-12-17T10:19:00.734Z,894.2
2022-12-17T10:20:00.817Z,894.2
2022-12-17T10:21:00.824Z,894.3
2022-12-17T10:22:00.837Z,894.2
2022-12-17T10:23:00.910Z,894.2
2022-12-17T10:24:00.687Z,894.2
2022-12-17T10:25:00.720Z,894.2
2022-12-17T10:26:00.894Z,894.2
2022-12-17T10:27:00.724Z,894.2
2022-12-17T10:28:00.726Z,894.2
2022-12-17T10:29:00.794Z,894.1
2022-12-17T10:30:00.758Z,894.2
2022-12-17T10:31:00.809Z,894.2
2022-12-17T10:32:00.795Z,894.1
2022-12-17T10:33:00.777Z,894.2
2022-12-17T10:34:00.874Z,894.2
2022-12-17T10:35:05.297Z,894.2
2022-12-17T10:36:00.761Z,894.2
2022-12-17T10:37:00.761Z,894.2
2022-12-17T10:38:00.716Z,894.2
2022-12-17T10:39:00.757Z,894.1
2022-12-17T10:40:00.838Z,894.2
2022-12-17T10:41:00.924Z,894.2
2022-12-17T10:42:00.827Z,894.1
2022-12-17T10:43:00.719Z,894.2
2022-12-17T10:44:00.723Z,894.2
2022-12-17T10:45:00.802Z,894.2
2022-12-17T10:46:00.832Z,894.2
2022-12-17T10:47:00.946Z,894.2
2022-12-17T10:48:00.711Z,894.2
2022-12-17T10:49:00.749Z,894.2
2022-12-17T10:50:00.797Z,894.2
2022-12-17T10:51:00.733Z,894.2
2022-12-17T10:52:00.721Z,894.1
2022-12-17T10:53:00.829Z,894.1
2022-12-17T10:54:00.816Z,894.1
2022-12-17T10:55:00.785Z,894.2
2022-12-17T10:56:00.852Z,894.2
2022-12-17T10:57:00.756Z,894.2
2022-12-17T10:58:01.063Z,894.2
2022-12-17T10:59:01.022Z,894.2
2022-12-17T11:00:00.871Z,894.2
2022-12-17T11:01:00.780Z,894.2
2022-12-17T11:02:00.985Z,894.2
2022-12-17T11:03:00.965Z,894.2
2022-12-17T11:04:00.816Z,894.2
2022-12-17T11:05:00.879Z,894.2
2022-12-17T11:06:00.795Z,894.2
2022-12-17T11:07:00.793Z,894.2
2022-12-17T11:08:00.820Z,894.2
2022-12-17T11:09:00.801Z,894.2
2022-12-17T11:10:06.992Z,894.1
2022-12-17T11:11:00.892Z,894.2
2022-12-17T11:12:05.727Z,894.2
2022-12-17T11:13:00.748Z,894.2
2022-12-17T11:14:00.764Z,894.1
2022-12-17T11:15:00.783Z,894.1
2022-12-17T11:16:00.896Z,894.1
2022-12-17T11:17:00.973Z,894.1
2022-12-17T11:18:00.715Z,894.1
2022-12-17T11:19:00.769Z,894.1
2022-12-17T11:20:00.721Z,894.1
2022-12-17T11:21:00.725Z,894.1
2022-12-17T11:22:00.740Z,894.1
2022-12-17T11:23:00.879Z,894.0
2022-12-17T11:24:00.756Z,894.1
2022-12-17T11:25:00.719Z,894.1
2022-12-17T11:26:01.011Z,894.1
2022-12-17T11:27:00.743Z,894.1
2022-12-17T11:28:00.725Z,894.1
2022-12-17T11:29:00.909Z,894.1
2022-12-17T11:30:00.693Z,894.1
2022-12-17T11:31:00.844Z,894.1
2022-12-17T11:32:00.780Z,894.1
2022-12-17T11:33:00.766Z,894.1
2022-12-17T11:34:00.717Z,894.1
2022-12-17T11:35:00.847Z,894.1
2022-12-17T11:36:00.724Z,894.1
2022-12-17T11:37:00.696Z,894.1
2022-12-17T11:38:00.752Z,894.1
2022-12-17T11:39:00.809Z,894.1
2022-12-17T11:40:00.786Z,894.1
2022-12-17T11:41:00.993Z,894.1
2022-12-17T11:42:00.874Z,894.2
2022-12-17T11:43:00.734Z,894.1
2022-12-17T11:44:00.794Z,894.1
2022-12-17T11:45:00.724Z,894.1
2022-12-17T11:46:00.814Z,894.1
2022-12-17T11:47:00.971Z,894.2
2022-12-17T11:48:00.804Z,894.2
2022-12-17T11:49:00.793Z,894.1
2022-12-17T11:50:01.079Z,894.1
2022-12-17T11:51:00.801Z,894.2
2022-12-17T11:52:00.739Z,894.2
2022-12-17T11:53:00.893Z,894.2
2022-12-17T11:54:00.726Z,894.2
2022-12-17T11:55:00.731Z,894.1
2022-12-17T11:56:00.708Z,894.1
2022-12-17T11:57:00.892Z,894.1
2022-12-17T11:58:00.891Z,894.1
2022-12-17T11:59:00.879Z,894.1
2022-12-17T12:00:04.139Z,894.1
2022-12-17T12:01:00.721Z,894.1
2022-12-17T12:02:00.764Z,894.1
2022-12-17T12:03:01.094Z,894.0
2022-12-17T12:04:00.782Z,894.1
2022-12-17T12:05:00.953Z,894.1
2022-12-17T12:06:00.765Z,894.1
2022-12-17T12:07:00.730Z,894.1
2022-12-17T12:08:00.724Z,894.1
2022-12-17T12:09:00.695Z,894.1
2022-12-17T12:10:00.758Z,894.1
2022-12-17T12:11:01.023Z,894.1
2022-12-17T12:12:00.693Z,894.1
2022-12-17T12:13:00.896Z,894.1
2022-12-17T12:14:00.756Z,894.1
2022-12-17T12:15:00.738Z,894.1
2022-12-17T12:16:01.024Z,894.1
2022-12-17T12:17:00.877Z,894.1
2022-12-17T12:18:00.748Z,894.1
2022-12-17T12:19:00.765Z,894.1
2022-12-17T12:20:01.549Z,894.1
2022-12-17T12:21:00.751Z,894.1
2022-12-17T12:22:00.825Z,894.1
2022-12-17T12:23:00.938Z,894.1
2022-12-17T12:24:00.691Z,894.1
2022-12-17T12:25:00.695Z,894.1
2022-12-17T12:26:00.849Z,894.1
2022-12-17T12:27:00.834Z,894.2
2022-12-17T12:28:00.831Z,894.2
2022-12-17T12:29:00.986Z,894.2
2022-12-17T12:30:00.807Z,894.1
2022-12-17T12:31:00.724Z,894.2
2022-12-17T12:32:00.762Z,894.2
2022-12-17T12:33:03.225Z,894.2
2022-12-17T12:34:00.733Z,894.2
2022-12-17T12:35:00.875Z,894.2
2022-12-17T12:36:00.694Z,894.2
2022-12-17T12:37:00.771Z,894.2
2022-12-17T12:38:00.718Z,894.2
2022-12-17T12:39:00.722Z,894.2
2022-12-17T12:40:00.716Z,894.2
2022-12-17T12:41:00.942Z,894.2
2022-12-17T12:42:00.753Z,894.2
2022-12-17T12:43:00.740Z,894.3
2022-12-17T12:44:01.050Z,894.2
2022-12-17T12:45:00.698Z,894.3
2022-12-17T12:46:00.798Z,894.3
2022-12-17T12:47:00.951Z,894.3
2022-12-17T12:48:00.735Z,894.3
2022-12-17T12:49:00.722Z,894.3
2022-12-17T12:50:00.731Z,894.3
2022-12-17T12:51:00.733Z,894.4
2022-12-17T12:52:00.790Z,894.4